createdAt,value
2022-08-28T00:01:15.916Z,13.38
2022-08-28T00:03:44.895Z,16.10
2022-08-28T00:06:16.224Z,17.45
2022-08-28T00:08:47.296Z,15.23
2022-08-28T00:11:15.582Z,17.15
2022-08-28T00:13:45.761Z,18.02
2022-08-28T00:16:14.111Z,16.27
2022-08-28T00:18:42.599Z,15.98
2022-08-28T00:21:11.765Z,18.05
2022-08-28T00:23:43.725Z,17.23
2022-08-28T00:26:35.917Z,18.45
2022-08-28T00:29:05.591Z,17.63
2022-08-28T00:31:34.728Z,17.92
2022-08-28T00:34:06.395Z,15.25
2022-08-28T00:36:38.048Z,16.70
2022-08-28T00:39:10.209Z,18.65
2022-08-28T00:41:41.771Z,14.38
2022-08-28T00:44:15.797Z,14.63
2022-08-28T00:46:46.584Z,13.48
2022-08-28T00:49:19.418Z,12.95
2022-08-28T00:52:11.823Z,15.82
2022-08-28T00:54:58.842Z,15.05
2022-08-28T00:57:32.051Z,15.70
2022-08-28T01:00:05.170Z,15.50
2022-08-28T01:02:33.654Z,12.95
2022-08-28T01:05:02.218Z,16.42
2022-08-28T01:07:34.090Z,18.02
2022-08-28T01:10:02.779Z,15.60
2022-08-28T01:12:34.788Z,15.95
2022-08-28T01:15:12.031Z,16.92
2022-08-28T01:17:49.193Z,17.40
2022-08-28T01:20:25.402Z,13.48
2022-08-28T01:23:03.283Z,13.68
2022-08-28T01:25:36.009Z,20.10
2022-08-28T01:28:10.648Z,16.55
2022-08-28T01:30:39.745Z,13.02
2022-08-28T01:33:08.392Z,13.73
2022-08-28T01:35:42.545Z,17.05
2022-08-28T01:38:10.926Z,13.13
2022-08-28T01:40:43.668Z,16.85
2022-08-28T01:43:15.083Z,15.95
2022-08-28T01:45:45.625Z,18.27
2022-08-28T01:48:15.966Z,13.18
2022-08-28T01:50:47.900Z,13.77
2022-08-28T01:53:18.454Z,16.58
2022-08-28T01:55:48.863Z,11.57
2022-08-28T01:58:17.909Z,18.60
2022-08-28T02:00:49.314Z,12.60
2022-08-28T02:03:17.647Z,12.45
2022-08-28T02:05:46.171Z,13.80
2022-08-28T02:08:15.001Z,14.13
2022-08-28T02:10:44.866Z,12.63
2022-08-28T02:13:15.106Z,16.42
2022-08-28T02:15:44.301Z,20.90
2022-08-28T02:18:14.746Z,18.83
2022-08-28T02:20:44.086Z,14.65
2022-08-28T02:23:12.690Z,13.13
2022-08-28T02:25:41.186Z,14.63
2022-08-28T02:28:10.185Z,16.33
2022-08-28T02:30:41.303Z,14.73
2022-08-28T02:33:12.479Z,14.07
2022-08-28T02:35:42.656Z,17.00
2022-08-28T02:38:11.062Z,14.52
2022-08-28T02:40:41.463Z,17.30
2022-08-28T02:43:12.694Z,15.70
2022-08-28T02:45:42.497Z,15.02
2022-08-28T02:48:15.574Z,16.13
2022-08-28T02:50:46.363Z,16.23
2022-08-28T02:53:18.168Z,17.80
2022-08-28T02:55:46.986Z,18.75
2022-08-28T02:58:15.843Z,13.93
2022-08-28T03:00:45.627Z,16.52
2022-08-28T03:03:14.034Z,13.40
2022-08-28T03:05:42.462Z,14.48
2022-08-28T03:08:13.630Z,12.73
2022-08-28T03:10:42.228Z,13.93
2022-08-28T03:13:11.322Z,14.27
2022-08-28T03:15:58.093Z,12.48
2022-08-28T03:18:30.500Z,12.95
2022-08-28T03:20:58.712Z,14.57
2022-08-28T03:23:30.417Z,9.98
2022-08-28T03:26:01.506Z,13.02
2022-08-28T03:28:31.964Z,14.43
2022-08-28T03:31:02.648Z,14.88
2022-08-28T03:33:31.055Z,14.10
2022-08-28T03:36:00.135Z,15.10
2022-08-28T03:38:33.986Z,12.85
2022-08-28T03:41:02.619Z,15.23
2022-08-28T03:43:31.675Z,13.90
2022-08-28T03:46:07.027Z,16.80
2022-08-28T03:48:38.618Z,20.02
2022-08-28T03:51:15.825Z,12.23
2022-08-28T03:53:46.713Z,13.63
2022-08-28T03:56:19.031Z,14.10
2022-08-28T03:58:47.317Z,19.42
2022-08-28T04:01:20.582Z,14.57
2022-08-28T04:03:49.107Z,20.65
2022-08-28T04:06:17.653Z,17.05
2022-08-28T04:08:46.171Z,17.08
2022-08-28T04:11:14.455Z,20.50
2022-08-28T04:13:45.565Z,13.93
2022-08-28T04:16:19.296Z,19.38
2022-08-28T04:18:49.870Z,19.85
2022-08-28T04:21:26.259Z,19.42
2022-08-28T04:23:55.488Z,20.77
2022-08-28T04:26:25.215Z,13.65
2022-08-28T04:28:56.106Z,17.15
2022-08-28T04:31:31.786Z,16.88
2022-08-28T04:34:01.626Z,17.42
2022-08-28T04:36:30.298Z,17.98
2022-08-28T04:38:59.002Z,19.08
2022-08-28T04:41:28.617Z,20.77
2022-08-28T04:44:00.463Z,21.42
2022-08-28T04:46:31.182Z,18.25
2022-08-28T04:48:59.990Z,16.33
2022-08-28T04:51:31.937Z,14.45
2022-08-28T04:54:00.976Z,16.48
2022-08-28T04:56:32.054Z,21.77
2022-08-28T04:59:02.332Z,17.52
2022-08-28T05:01:32.164Z,17.70
2022-08-28T05:04:02.437Z,13.80
2022-08-28T05:06:32.194Z,17.90
2022-08-28T05:09:02.870Z,16.48
2022-08-28T05:11:35.145Z,16.73
2022-08-28T05:14:05.037Z,19.20
2022-08-28T05:16:41.001Z,17.67
2022-08-28T05:19:09.338Z,19.63
2022-08-28T05:21:38.946Z,15.55
2022-08-28T05:24:09.023Z,17.00
2022-08-28T05:26:40.274Z,17.77
2022-08-28T05:29:10.075Z,16.45
2022-08-28T05:31:42.345Z,14.52
2022-08-28T05:34:13.373Z,15.48
2022-08-28T05:36:41.815Z,18.85
2022-08-28T05:39:12.762Z,13.30
2022-08-28T05:41:43.372Z,14.30
2022-08-28T05:44:14.331Z,16.05
2022-08-28T05:46:47.803Z,14.73
2022-08-28T05:49:18.014Z,14.15
2022-08-28T05:51:47.131Z,16.90
2022-08-28T05:54:16.630Z,11.35
2022-08-28T05:56:46.693Z,9.45
2022-08-28T05:59:16.083Z,13.88
2022-08-28T06:01:48.679Z,13.90
2022-08-28T06:04:19.550Z,11.73
2022-08-28T06:06:49.616Z,16.77
2022-08-28T06:09:25.328Z,13.77
2022-08-28T06:11:56.819Z,15.82
2022-08-28T06:14:26.225Z,15.57
2022-08-28T06:16:58.042Z,14.30
2022-08-28T06:19:28.401Z,14.27
2022-08-28T06:21:58.615Z,15.75
2022-08-28T06:24:28.253Z,14.93
2022-08-28T06:26:58.515Z,13.48
2022-08-28T06:29:29.390Z,13.07
2022-08-28T06:32:01.124Z,17.30
2022-08-28T06:34:32.822Z,13.20
2022-08-28T06:37:04.103Z,17.02
2022-08-28T06:39:35.124Z,11.50
2022-08-28T06:42:03.631Z,11.18
2022-08-28T06:44:34.876Z,14.23
2022-08-28T06:47:04.943Z,10.73
2022-08-28T06:49:33.580Z,11.68
2022-08-28T06:52:02.459Z,9.40
2022-08-28T06:54:31.385Z,10.18
2022-08-28T06:56:59.811Z,13.77
2022-08-28T06:59:28.191Z,14.00
2022-08-28T07:01:58.334Z,13.00
2022-08-28T07:04:33.899Z,11.30
2022-08-28T07:07:05.131Z,14.45
2022-08-28T07:09:36.401Z,15.93
2022-08-28T07:12:09.171Z,12.20
2022-08-28T07:14:38.356Z,10.63
2022-08-28T07:17:07.571Z,8.48
2022-08-28T07:19:37.503Z,9.88
2022-08-28T07:22:08.761Z,11.73
2022-08-28T07:24:37.243Z,11.88
2022-08-28T07:27:09.277Z,12.45
2022-08-28T07:29:38.169Z,15.30
2022-08-28T07:32:06.825Z,12.70
2022-08-28T07:34:41.588Z,12.55
2022-08-28T07:37:14.702Z,12.20
2022-08-28T07:39:46.749Z,12.50
2022-08-28T07:42:35.435Z,8.63
2022-08-28T07:45:07.212Z,10.60
2022-08-28T07:47:42.341Z,10.48
2022-08-28T07:50:12.326Z,12.82
2022-08-28T07:52:43.634Z,13.40
2022-08-28T07:55:12.184Z,12.13
2022-08-28T07:57:41.004Z,16.98
2022-08-28T08:00:13.613Z,11.82
2022-08-28T08:02:42.311Z,11.55
2022-08-28T08:05:14.511Z,14.05
2022-08-28T08:07:45.934Z,13.25
2022-08-28T08:10:20.020Z,15.07
2022-08-28T08:12:52.329Z,12.10
2022-08-28T08:15:20.955Z,12.50
2022-08-28T08:17:55.282Z,14.60
2022-08-28T08:20:27.746Z,14.30
2022-08-28T08:23:07.253Z,12.52
2022-08-28T08:25:38.205Z,12.50
2022-08-28T08:28:13.920Z,10.68
2022-08-28T08:30:50.187Z,11.48
2022-08-28T08:33:31.675Z,8.90
2022-08-28T08:36:08.369Z,14.80
2022-08-28T08:38:40.026Z,9.20
2022-08-28T08:41:30.571Z,15.75
2022-08-28T08:44:06.058Z,7.80
2022-08-28T08:46:52.761Z,9.05
2022-08-28T08:49:32.013Z,11.35
2022-08-28T08:52:29.429Z,9.70
2022-08-28T08:55:07.819Z,12.82
2022-08-28T08:57:44.411Z,11.50
2022-08-28T09:00:23.007Z,14.35
2022-08-28T09:03:20.995Z,13.63
2022-08-28T09:06:08.192Z,13.18
2022-08-28T09:08:49.595Z,12.95
2022-08-28T09:11:35.539Z,10.18
2022-08-28T09:14:16.231Z,10.95
2022-08-28T09:16:55.468Z,11.77
2022-08-28T09:19:37.685Z,10.52
2022-08-28T09:22:11.593Z,14.85
2022-08-28T09:24:50.381Z,8.95
2022-08-28T09:27:28.117Z,15.32
2022-08-28T09:30:11.830Z,9.93
2022-08-28T09:33:07.978Z,10.98
2022-08-28T09:35:51.539Z,10.32
2022-08-28T09:38:32.236Z,12.43
2022-08-28T09:41:38.567Z,8.60
2022-08-28T09:44:26.276Z,12.30
2022-08-28T09:47:04.803Z,12.75
2022-08-28T10:03:59.646Z,13.75
2022-08-28T10:06:33.653Z,13.40
2022-08-28T10:09:15.004Z,14.20
2022-08-28T10:11:50.223Z,9.25
2022-08-28T10:14:32.720Z,10.70
2022-08-28T10:17:09.880Z,17.35
2022-08-28T10:19:51.553Z,10.18
2022-08-28T10:22:28.835Z,13.45
2022-08-28T10:25:08.020Z,24.60
2022-08-28T10:27:48.797Z,17.42
2022-08-28T10:30:21.709Z,10.45
2022-08-28T10:33:05.143Z,13.27
2022-08-28T10:35:43.998Z,15.88
2022-08-28T10:38:16.331Z,13.40
2022-08-28T10:40:55.737Z,11.63
2022-08-28T10:43:31.804Z,18.30
2022-08-28T10:46:05.398Z,13.23
2022-08-28T10:48:40.905Z,10.35
2022-08-28T10:51:18.570Z,15.48
2022-08-28T10:53:52.112Z,11.80
2022-08-28T10:56:23.366Z,11.45
2022-08-28T10:58:56.702Z,12.00
2022-08-28T11:01:29.702Z,15.07
2022-08-28T11:04:00.450Z,11.82
2022-08-28T11:06:35.102Z,17.73
2022-08-28T11:09:24.795Z,13.85
2022-08-28T11:12:01.011Z,11.75
2022-08-28T11:14:47.628Z,15.00
2022-08-28T11:17:41.319Z,18.92
2022-08-28T11:20:16.363Z,17.77
2022-08-28T11:22:48.807Z,16.10
2022-08-28T11:25:26.666Z,15.68
2022-08-28T11:28:19.513Z,14.82
2022-08-28T11:30:50.191Z,16.38
2022-08-28T11:33:40.105Z,14.95
2022-08-28T11:36:12.250Z,16.13
2022-08-28T11:39:23.303Z,15.82
2022-08-28T11:42:32.384Z,15.88
2022-08-28T11:45:00.758Z,16.00
2022-08-28T11:47:46.601Z,18.15
2022-08-28T11:50:22.271Z,21.25
2022-08-28T11:53:30.536Z,32.53
2022-08-28T11:56:28.303Z,15.57
2022-08-28T11:59:18.758Z,20.00
2022-08-28T12:01:47.075Z,19.48
2022-08-28T12:04:17.884Z,18.50
2022-08-28T12:07:17.453Z,22.83
2022-08-28T12:09:47.470Z,17.95
2022-08-28T12:12:50.133Z,18.98
2022-08-28T12:15:41.703Z,19.80
2022-08-28T12:18:17.122Z,16.95
2022-08-28T12:21:03.811Z,19.17
2022-08-28T12:23:38.314Z,19.88
2022-08-28T12:26:09.884Z,25.80
2022-08-28T12:28:47.072Z,19.52
2022-08-28T12:32:10.510Z,21.27
2022-08-28T12:34:49.970Z,19.15
2022-08-28T12:37:52.668Z,20.23
2022-08-28T12:40:24.778Z,17.90
2022-08-28T12:42:55.962Z,17.50
2022-08-28T12:45:28.057Z,23.33
2022-08-28T12:48:00.108Z,23.13
2022-08-28T12:50:33.712Z,24.33
2022-08-28T12:53:03.971Z,23.88
2022-08-28T12:55:32.851Z,21.85
2022-08-28T12:58:01.563Z,22.85
2022-08-28T13:00:35.466Z,25.60
2022-08-28T13:03:08.443Z,27.10
2022-08-28T13:05:41.213Z,38.05
2022-08-28T13:08:12.527Z,75.05
2022-08-28T13:10:44.016Z,45.28
2022-08-28T13:13:21.030Z,34.95
2022-08-28T13:15:53.476Z,33.40
2022-08-28T13:18:40.016Z,34.60
2022-08-28T13:21:32.739Z,26.70
2022-08-28T13:26:34.063Z,12.27
2022-08-28T13:29:05.096Z,12.00
2022-08-28T13:31:35.853Z,8.10
2022-08-28T13:34:12.111Z,7.95
2022-08-28T13:36:48.219Z,8.32
2022-08-28T13:39:18.700Z,6.00
2022-08-28T13:41:50.206Z,5.22
2022-08-28T13:44:30.688Z,10.07
2022-08-28T13:47:00.001Z,6.90
2022-08-28T13:49:28.958Z,5.95
2022-08-28T13:52:00.967Z,6.68
2022-08-28T13:54:29.998Z,7.45
2022-08-28T13:56:59.755Z,8.65
2022-08-28T13:59:28.649Z,9.95
2022-08-28T14:02:17.576Z,11.23
2022-08-28T14:04:46.039Z,14.27
2022-08-28T14:07:16.337Z,17.00
2022-08-28T14:09:44.719Z,28.05
2022-08-28T14:12:13.462Z,35.08
2022-08-28T14:14:41.974Z,57.92
2022-08-28T14:17:11.066Z,71.20
2022-08-28T14:19:39.121Z,77.43
2022-08-28T14:22:07.358Z,65.80
2022-08-28T14:24:37.283Z,86.63
2022-08-28T14:27:05.655Z,70.68
2022-08-28T14:29:33.792Z,64.85
2022-08-28T14:32:04.175Z,71.32
2022-08-28T14:34:32.955Z,73.55
2022-08-28T14:37:01.726Z,70.85
2022-08-28T14:39:31.081Z,60.00
2022-08-28T14:42:00.587Z,60.40
2022-08-28T14:44:28.778Z,57.33
2022-08-28T14:46:57.483Z,93.70
2022-08-28T14:49:26.754Z,211.30
2022-08-28T14:51:57.053Z,206.40
2022-08-28T14:54:26.547Z,182.23
2022-08-28T14:56:55.761Z,145.07
2022-08-28T14:59:28.371Z,203.77
2022-08-28T15:02:00.187Z,153.32
2022-08-28T15:04:34.690Z,85.15
2022-08-28T15:07:06.120Z,64.15
2022-08-28T15:09:37.965Z,145.07
2022-08-28T15:12:06.914Z,121.50
2022-08-28T15:14:37.078Z,65.82
2022-08-28T15:17:06.076Z,97.07
2022-08-28T15:19:34.364Z,61.90
2022-08-28T15:22:04.284Z,105.57
2022-08-28T15:24:34.554Z,54.75
2022-08-28T15:27:03.268Z,84.30
2022-08-28T15:29:31.765Z,58.90
2022-08-28T15:32:01.828Z,65.53
2022-08-28T15:34:30.348Z,75.97
2022-08-28T15:36:59.383Z,62.75
2022-08-28T15:39:46.350Z,83.85
2022-08-28T15:42:15.101Z,56.20
2022-08-28T15:44:43.393Z,66.90
2022-08-28T15:47:14.915Z,70.68
2022-08-28T15:49:49.914Z,75.10
2022-08-28T15:52:20.582Z,64.75
2022-08-28T15:54:49.616Z,55.90
2022-08-28T15:57:17.806Z,54.58
2022-08-28T15:59:50.065Z,50.65
2022-08-28T16:02:20.912Z,57.25
2022-08-28T16:04:49.267Z,55.40
2022-08-28T16:07:17.639Z,53.72
2022-08-28T16:09:45.758Z,58.45
2022-08-28T16:12:13.977Z,50.00
2022-08-28T16:14:42.131Z,63.50
2022-08-28T16:17:11.466Z,57.92
2022-08-28T16:19:41.637Z,49.90
2022-08-28T16:22:10.587Z,54.58
2022-08-28T16:24:38.761Z,57.47
2022-08-28T16:27:08.719Z,52.92
2022-08-28T16:29:40.211Z,63.72
2022-08-28T16:32:08.378Z,63.33
2022-08-28T16:34:37.008Z,65.78
2022-08-28T16:37:07.999Z,68.13
2022-08-28T16:39:36.542Z,65.95
2022-08-28T16:42:05.329Z,61.63
2022-08-28T16:44:33.903Z,60.50
2022-08-28T16:47:02.350Z,55.03
2022-08-28T16:49:30.765Z,57.88
2022-08-28T16:51:58.899Z,54.65
2022-08-28T16:54:28.494Z,58.75
2022-08-28T16:56:56.899Z,47.05
2022-08-28T16:59:24.975Z,53.08
2022-08-28T17:01:53.746Z,37.28
2022-08-28T17:04:23.059Z,32.67
2022-08-28T17:06:51.122Z,30.70
2022-08-28T17:09:20.768Z,27.90
2022-08-28T17:11:52.218Z,21.65
2022-08-28T17:14:20.934Z,25.42
2022-08-28T17:16:49.551Z,21.02
2022-08-28T17:19:17.723Z,17.67
2022-08-28T17:22:14.493Z,16.58
2022-08-28T17:24:42.864Z,15.52
2022-08-28T17:27:12.868Z,16.13
2022-08-28T17:29:41.082Z,14.18
2022-08-28T17:32:09.235Z,10.93
2022-08-28T17:34:37.891Z,14.32
2022-08-28T17:37:06.834Z,12.55
2022-08-28T17:39:34.969Z,10.63
2022-08-28T17:42:03.911Z,12.95
2022-08-28T17:44:35.246Z,14.68
2022-08-28T17:47:03.558Z,13.90
2022-08-28T17:49:31.707Z,15.77
2022-08-28T17:51:59.818Z,12.40
2022-08-28T17:54:28.072Z,12.40
2022-08-28T17:56:56.489Z,13.45
2022-08-28T17:59:27.802Z,11.27
2022-08-28T18:01:57.321Z,12.55
2022-08-28T18:04:25.625Z,13.68
2022-08-28T18:06:54.722Z,15.82
2022-08-28T18:09:24.290Z,11.30
2022-08-28T18:11:52.933Z,10.73
2022-08-28T18:14:21.542Z,12.82
2022-08-28T18:16:49.842Z,11.25
2022-08-28T18:19:20.137Z,10.60
2022-08-28T18:21:48.131Z,9.00
2022-08-28T18:24:16.806Z,11.02
2022-08-28T18:26:47.368Z,10.82
2022-08-28T18:29:15.648Z,11.65
2022-08-28T18:31:44.126Z,12.15
2022-08-28T18:34:12.604Z,10.80
2022-08-28T18:36:42.638Z,13.18
2022-08-28T18:39:11.486Z,12.35
2022-08-28T18:41:43.957Z,12.45
2022-08-28T18:44:14.444Z,15.02
2022-08-28T18:46:43.184Z,10.88
2022-08-28T18:49:11.534Z,12.07
2022-08-28T18:51:44.908Z,12.55
2022-08-28T18:54:16.420Z,16.17
2022-08-28T18:56:44.894Z,15.35
2022-08-28T18:59:13.181Z,11.30
2022-08-28T19:01:41.349Z,13.93
2022-08-28T19:04:09.580Z,18.83
2022-08-28T19:06:37.630Z,9.77
2022-08-28T19:09:07.189Z,13.05
2022-08-28T19:11:36.293Z,12.05
2022-08-28T19:14:04.779Z,13.48
2022-08-28T19:16:35.275Z,13.65
2022-08-28T19:19:04.495Z,17.67
2022-08-28T19:21:33.528Z,14.77
2022-08-28T19:24:01.684Z,14.25
2022-08-28T19:26:31.124Z,11.70
2022-08-28T19:29:00.090Z,15.23
2022-08-28T19:31:28.924Z,14.40
2022-08-28T19:33:57.711Z,12.88
2022-08-28T19:36:27.427Z,15.75
2022-08-28T19:38:55.547Z,13.27
2022-08-28T19:41:23.999Z,13.32
2022-08-28T19:43:53.564Z,14.02
2022-08-28T19:46:21.694Z,14.43
2022-08-28T19:48:50.320Z,25.80
2022-08-28T19:51:23.352Z,15.35
2022-08-28T19:53:56.761Z,17.15
2022-08-28T19:56:27.397Z,15.40
2022-08-28T19:58:59.265Z,16.33
2022-08-28T20:01:29.559Z,11.77
2022-08-28T20:03:58.623Z,16.25
2022-08-28T20:06:27.474Z,16.42
2022-08-28T20:08:55.582Z,14.45
2022-08-28T20:11:30.469Z,13.50
2022-08-28T20:14:04.962Z,15.63
2022-08-28T20:16:34.887Z,15.48
2022-08-28T20:19:03.925Z,13.52
2022-08-28T20:21:37.834Z,13.32
2022-08-28T20:24:07.533Z,13.20
2022-08-28T20:26:35.865Z,15.30
2022-08-28T20:29:06.466Z,15.00
2022-08-28T20:31:34.848Z,10.65
2022-08-28T20:34:03.149Z,19.13
2022-08-28T20:36:31.169Z,18.73
2022-08-28T20:39:00.059Z,13.00
2022-08-28T20:41:28.505Z,14.88
2022-08-28T20:43:57.035Z,11.82
2022-08-28T20:46:26.591Z,14.50
2022-08-28T20:48:54.724Z,13.55
2022-08-28T20:51:42.811Z,14.60
2022-08-28T20:54:11.299Z,15.50
2022-08-28T20:56:39.690Z,17.13
2022-08-28T20:59:08.259Z,15.82
2022-08-28T21:01:38.041Z,13.48
2022-08-28T21:04:06.628Z,12.80
2022-08-28T21:06:34.964Z,16.52
2022-08-28T21:09:03.178Z,12.68
2022-08-28T21:11:31.331Z,14.55
2022-08-28T21:13:59.401Z,19.63
2022-08-28T21:16:27.484Z,11.77
2022-08-28T21:19:15.255Z,18.38
2022-08-28T21:21:45.316Z,13.48
2022-08-28T21:24:15.917Z,16.23
2022-08-28T21:26:45.125Z,14.20
2022-08-28T21:29:14.792Z,17.70
2022-08-28T21:31:45.001Z,18.95
2022-08-28T21:34:15.515Z,15.40
2022-08-28T21:36:50.276Z,17.77
2022-08-28T21:39:21.011Z,18.33
2022-08-28T21:41:50.173Z,16.40
2022-08-28T21:44:18.902Z,14.63
2022-08-28T21:46:47.053Z,20.33
2022-08-28T21:49:16.636Z,16.30
2022-08-28T21:51:44.732Z,17.33
2022-08-28T21:54:13.292Z,13.35
2022-08-28T21:56:41.602Z,11.52
2022-08-28T21:59:09.778Z,19.13
2022-08-28T22:01:37.948Z,15.02
2022-08-28T22:04:06.484Z,15.68
2022-08-28T22:06:36.118Z,19.15
2022-08-28T22:09:06.581Z,15.77
2022-08-28T22:11:35.634Z,15.85
2022-08-28T22:14:03.789Z,18.10
2022-08-28T22:16:31.851Z,13.85
2022-08-28T22:19:00.333Z,13.77
2022-08-28T22:21:46.167Z,18.05
2022-08-28T22:24:15.942Z,16.77
2022-08-28T22:26:45.264Z,22.02
2022-08-28T22:29:13.644Z,15.43
2022-08-28T22:31:45.969Z,16.20
2022-08-28T22:34:14.371Z,17.58
2022-08-28T22:36:42.532Z,16.67
2022-08-28T22:39:10.622Z,14.68
2022-08-28T22:41:40.461Z,18.27
2022-08-28T22:44:09.023Z,16.55
2022-08-28T22:46:37.117Z,16.17
2022-08-28T22:49:05.321Z,14.43
2022-08-28T22:51:35.248Z,17.17
2022-08-28T22:54:03.437Z,15.45
2022-08-28T22:56:31.512Z,21.40
2022-08-28T22:59:01.114Z,19.52
2022-08-28T23:01:29.766Z,20.17
2022-08-28T23:04:01.441Z,14.73
2022-08-28T23:06:29.770Z,16.48
2022-08-28T23:08:57.898Z,19.42
2022-08-28T23:11:26.268Z,17.75
2022-08-28T23:13:54.449Z,17.30
2022-08-28T23:16:24.787Z,15.65
2022-08-28T23:19:08.827Z,17.08
2022-08-28T23:21:40.954Z,13.43
2022-08-28T23:24:12.677Z,16.25
2022-08-28T23:26:40.856Z,15.55
2022-08-28T23:29:09.288Z,13.40
2022-08-28T23:31:39.663Z,16.20
2022-08-28T23:34:08.243Z,12.45
2022-08-28T23:36:37.247Z,15.55
2022-08-28T23:39:07.769Z,15.70
2022-08-28T23:41:36.038Z,16.92
2022-08-28T23:44:08.810Z,12.40
2022-08-28T23:46:41.564Z,13.95
2022-08-28T23:49:10.549Z,15.52
2022-08-28T23:51:38.779Z,18.08
2022-08-28T23:54:07.530Z,15.50
2022-08-28T23:56:35.803Z,14.05
2022-08-28T23:59:04.119Z,17.48
